Northwest Junior College, Mississippi
Current Conditions -  °F | °C
As of 2:35 AM on Monday 24 Nov 2014 (Local Time) from KUOX Reporting Station
Few Clouds Few Clouds  
Wind Chill: 59°   Ceiling: Unl
Heat Index: 59°   Visibility: 10mi
Dew Point: 52°   Wind: 17mph
Humidity: 77%   Direction: 220°SW
Pressure: 29.57"   Gusts: 26mph
Location:  34.6336°N, 89.8203°W
Report Text: KUOX 240835Z AUTO 22015G23KT 10SM FEW031 15/11 A2957 RMK AO2 PWINO PNO
Loading
Personal Weather Stations






























Interactive Weather Map New forecast layout! Learn more

10-Day Weather Forecast

Advertisements
Track Severe Weather on mobile